sensor_id;sensor_type;location;lat;lon;timestamp;P1;durP1;ratioP1;P2;durP2;ratioP2
73264;SDS011;61493;51.008;14.088;2023-05-23T01:47:49;7.43;;;4.57;;
73264;SDS011;61493;51.008;14.088;2023-05-23T01:50:15;5.60;;;3.65;;
73264;SDS011;61493;51.008;14.088;2023-05-23T01:52:40;6.68;;;4.13;;
73264;SDS011;61493;51.008;14.088;2023-05-23T01:55:06;5.35;;;3.80;;
73264;SDS011;61493;51.008;14.088;2023-05-23T01:57:34;6.28;;;4.43;;
73264;SDS011;61493;51.008;14.088;2023-05-23T02:00:00;6.85;;;4.38;;
73264;SDS011;61493;51.008;14.088;2023-05-23T02:02:25;7.13;;;3.97;;
73264;SDS011;61493;51.008;14.088;2023-05-23T02:04:50;7.55;;;4.43;;
73264;SDS011;61493;51.008;14.088;2023-05-23T02:07:15;7.68;;;4.60;;
73264;SDS011;61493;51.008;14.088;2023-05-23T02:09:40;8.18;;;4.43;;
73264;SDS011;61493;51.008;14.088;2023-05-23T02:12:05;8.20;;;4.60;;
73264;SDS011;61493;51.008;14.088;2023-05-23T02:14:31;6.70;;;4.30;;
73264;SDS011;61493;51.008;14.088;2023-05-23T02:16:56;6.30;;;4.15;;
73264;SDS011;61493;51.008;14.088;2023-05-23T02:19:21;6.70;;;4.27;;
73264;SDS011;61493;51.008;14.088;2023-05-23T02:21:46;6.37;;;4.20;;
73264;SDS011;61493;51.008;14.088;2023-05-23T02:24:11;5.67;;;3.77;;
73264;SDS011;61493;51.008;14.088;2023-05-23T02:26:36;5.60;;;4.20;;
73264;SDS011;61493;51.008;14.088;2023-05-23T02:29:02;7.72;;;4.15;;
73264;SDS011;61493;51.008;14.088;2023-05-23T02:31:27;6.22;;;4.30;;
73264;SDS011;61493;51.008;14.088;2023-05-23T02:33:52;7.63;;;5.05;;
73264;SDS011;61493;51.008;14.088;2023-05-23T02:36:17;9.90;;;4.85;;
73264;SDS011;61493;51.008;14.088;2023-05-23T02:38:43;8.32;;;4.65;;
73264;SDS011;61493;51.008;14.088;2023-05-23T02:41:08;6.55;;;4.22;;
73264;SDS011;61493;51.008;14.088;2023-05-23T02:43:33;8.02;;;4.82;;
73264;SDS011;61493;51.008;14.088;2023-05-23T02:45:59;7.10;;;4.70;;
73264;SDS011;61493;51.008;14.088;2023-05-23T02:48:24;8.70;;;5.03;;
73264;SDS011;61493;51.008;14.088;2023-05-23T02:50:49;6.80;;;4.40;;
73264;SDS011;61493;51.008;14.088;2023-05-23T02:53:14;10.52;;;4.90;;
73264;SDS011;61493;51.008;14.088;2023-05-23T02:55:40;10.60;;;5.15;;
73264;SDS011;61493;51.008;14.088;2023-05-23T02:58:06;7.13;;;4.95;;
73264;SDS011;61493;51.008;14.088;2023-05-23T03:00:34;7.95;;;4.88;;
73264;SDS011;61493;51.008;14.088;2023-05-23T03:03:00;7.93;;;5.10;;
73264;SDS011;61493;51.008;14.088;2023-05-23T03:05:25;6.97;;;4.93;;
73264;SDS011;61493;51.008;14.088;2023-05-23T03:07:50;8.88;;;5.50;;
73264;SDS011;61493;51.008;14.088;2023-05-23T03:10:16;8.68;;;5.22;;
73264;SDS011;61493;51.008;14.088;2023-05-23T03:12:41;7.78;;;5.00;;
73264;SDS011;61493;51.008;14.088;2023-05-23T03:15:07;7.95;;;5.13;;
73264;SDS011;61493;51.008;14.088;2023-05-23T03:17:33;8.52;;;5.68;;
73264;SDS011;61493;51.008;14.088;2023-05-23T03:19:58;7.30;;;5.60;;
73264;SDS011;61493;51.008;14.088;2023-05-23T03:22:23;8.10;;;4.90;;
73264;SDS011;61493;51.008;14.088;2023-05-23T03:24:48;8.55;;;5.15;;
73264;SDS011;61493;51.008;14.088;2023-05-23T03:27:13;6.72;;;4.57;;
73264;SDS011;61493;51.008;14.088;2023-05-23T03:29:38;9.73;;;5.20;;
73264;SDS011;61493;51.008;14.088;2023-05-23T03:32:04;7.68;;;4.65;;
73264;SDS011;61493;51.008;14.088;2023-05-23T03:34:29;8.13;;;4.97;;
73264;SDS011;61493;51.008;14.088;2023-05-23T03:36:56;7.10;;;4.60;;
73264;SDS011;61493;51.008;14.088;2023-05-23T03:39:22;8.57;;;4.78;;
73264;SDS011;61493;51.008;14.088;2023-05-23T03:41:47;7.80;;;4.60;;
73264;SDS011;61493;51.008;14.088;2023-05-23T03:44:12;7.28;;;5.05;;
73264;SDS011;61493;51.008;14.088;2023-05-23T03:46:38;7.30;;;4.72;;
73264;SDS011;61493;51.008;14.088;2023-05-23T03:49:03;7.45;;;4.40;;
73264;SDS011;61493;51.008;14.088;2023-05-23T03:51:28;6.50;;;4.38;;
73264;SDS011;61493;51.008;14.088;2023-05-23T03:53:55;9.25;;;5.20;;
73264;SDS011;61493;51.008;14.088;2023-05-23T03:56:21;7.95;;;5.35;;
73264;SDS011;61493;51.008;14.088;2023-05-23T03:58:48;7.85;;;5.32;;
73264;SDS011;61493;51.008;14.088;2023-05-23T04:01:13;9.10;;;5.23;;
73264;SDS011;61493;51.008;14.088;2023-05-23T04:03:39;7.00;;;5.28;;
73264;SDS011;61493;51.008;14.088;2023-05-23T04:06:04;10.82;;;5.88;;
73264;SDS011;61493;51.008;14.088;2023-05-23T04:08:29;7.20;;;5.25;;
73264;SDS011;61493;51.008;14.088;2023-05-23T04:10:58;9.48;;;5.70;;
73264;SDS011;61493;51.008;14.088;2023-05-23T04:13:23;8.48;;;4.88;;
73264;SDS011;61493;51.008;14.088;2023-05-23T04:15:50;8.90;;;5.63;;
73264;SDS011;61493;51.008;14.088;2023-05-23T04:18:16;6.45;;;4.75;;
73264;SDS011;61493;51.008;14.088;2023-05-23T04:20:41;7.17;;;4.90;;
73264;SDS011;61493;51.008;14.088;2023-05-23T04:23:06;6.47;;;4.47;;
73264;SDS011;61493;51.008;14.088;2023-05-23T04:25:31;8.55;;;5.03;;
73264;SDS011;61493;51.008;14.088;2023-05-23T04:27:58;6.30;;;4.15;;
73264;SDS011;61493;51.008;14.088;2023-05-23T04:30:23;8.23;;;4.22;;
73264;SDS011;61493;51.008;14.088;2023-05-23T04:32:48;8.13;;;4.93;;
73264;SDS011;61493;51.008;14.088;2023-05-23T04:35:14;7.13;;;4.20;;
73264;SDS011;61493;51.008;14.088;2023-05-23T04:37:39;8.02;;;4.30;;
73264;SDS011;61493;51.008;14.088;2023-05-23T04:40:06;6.82;;;4.95;;
73264;SDS011;61493;51.008;14.088;2023-05-23T04:42:32;6.00;;;3.88;;
73264;SDS011;61493;51.008;14.088;2023-05-23T04:44:57;7.88;;;4.28;;
73264;SDS011;61493;51.008;14.088;2023-05-23T04:47:22;7.78;;;4.60;;
73264;SDS011;61493;51.008;14.088;2023-05-23T04:49:52;8.45;;;4.82;;
73264;SDS011;61493;51.008;14.088;2023-05-23T04:52:17;7.40;;;5.20;;
73264;SDS011;61493;51.008;14.088;2023-05-23T04:54:43;7.13;;;4.35;;
73264;SDS011;61493;51.008;14.088;2023-05-23T04:57:10;7.53;;;4.35;;
73264;SDS011;61493;51.008;14.088;2023-05-23T04:59:36;7.53;;;4.38;;
73264;SDS011;61493;51.008;14.088;2023-05-23T05:02:02;7.45;;;4.55;;
73264;SDS011;61493;51.008;14.088;2023-05-23T05:04:27;6.60;;;4.63;;
73264;SDS011;61493;51.008;14.088;2023-05-23T05:06:52;6.53;;;4.25;;
73264;SDS011;61493;51.008;14.088;2023-05-23T05:09:17;8.02;;;4.30;;
73264;SDS011;61493;51.008;14.088;2023-05-23T05:11:43;5.55;;;4.07;;
73264;SDS011;61493;51.008;14.088;2023-05-23T05:14:08;8.07;;;4.70;;
73264;SDS011;61493;51.008;14.088;2023-05-23T05:16:33;6.95;;;4.43;;
73264;SDS011;61493;51.008;14.088;2023-05-23T05:18:58;7.32;;;3.63;;
73264;SDS011;61493;51.008;14.088;2023-05-23T05:21:24;8.82;;;3.72;;
73264;SDS011;61493;51.008;14.088;2023-05-23T05:23:49;5.80;;;3.85;;
73264;SDS011;61493;51.008;14.088;2023-05-23T05:26:15;5.75;;;4.13;;
73264;SDS011;61493;51.008;14.088;2023-05-23T05:28:41;5.72;;;4.00;;
73264;SDS011;61493;51.008;14.088;2023-05-23T05:31:06;5.13;;;3.53;;
73264;SDS011;61493;51.008;14.088;2023-05-23T05:33:31;8.57;;;4.00;;
73264;SDS011;61493;51.008;14.088;2023-05-23T05:36:00;6.25;;;3.55;;
73264;SDS011;61493;51.008;14.088;2023-05-23T05:38:25;5.70;;;3.33;;
73264;SDS011;61493;51.008;14.088;2023-05-23T05:40:50;5.00;;;3.28;;
73264;SDS011;61493;51.008;14.088;2023-05-23T05:43:15;5.65;;;3.30;;
73264;SDS011;61493;51.008;14.088;2023-05-23T05:45:41;6.53;;;3.65;;
73264;SDS011;61493;51.008;14.088;2023-05-23T05:48:06;6.95;;;4.00;;
73264;SDS011;61493;51.008;14.088;2023-05-23T05:50:32;5.97;;;4.03;;
73264;SDS011;61493;51.008;14.088;2023-05-23T05:52:57;9.33;;;5.13;;
73264;SDS011;61493;51.008;14.088;2023-05-23T05:55:22;8.45;;;6.13;;
73264;SDS011;61493;51.008;14.088;2023-05-23T05:57:47;8.50;;;5.88;;
73264;SDS011;61493;51.008;14.088;2023-05-23T06:00:13;9.13;;;6.77;;
73264;SDS011;61493;51.008;14.088;2023-05-23T06:02:43;9.80;;;6.75;;
73264;SDS011;61493;51.008;14.088;2023-05-23T06:05:09;9.70;;;6.20;;
73264;SDS011;61493;51.008;14.088;2023-05-23T06:07:36;9.90;;;7.22;;
73264;SDS011;61493;51.008;14.088;2023-05-23T06:10:01;10.52;;;7.15;;
73264;SDS011;61493;51.008;14.088;2023-05-23T06:12:27;9.63;;;6.50;;
73264;SDS011;61493;51.008;14.088;2023-05-23T06:14:52;9.83;;;6.33;;
73264;SDS011;61493;51.008;14.088;2023-05-23T06:17:17;9.40;;;6.67;;
73264;SDS011;61493;51.008;14.088;2023-05-23T06:19:43;8.38;;;6.82;;
73264;SDS011;61493;51.008;14.088;2023-05-23T06:22:08;8.97;;;6.40;;
73264;SDS011;61493;51.008;14.088;2023-05-23T06:24:33;10.63;;;7.15;;
73264;SDS011;61493;51.008;14.088;2023-05-23T06:26:58;9.27;;;7.23;;
73264;SDS011;61493;51.008;14.088;2023-05-23T06:29:23;9.53;;;7.43;;
73264;SDS011;61493;51.008;14.088;2023-05-23T06:31:48;12.07;;;7.82;;
73264;SDS011;61493;51.008;14.088;2023-05-23T06:34:14;11.73;;;8.88;;
73264;SDS011;61493;51.008;14.088;2023-05-23T06:36:40;13.98;;;10.43;;
73264;SDS011;61493;51.008;14.088;2023-05-23T06:39:06;14.27;;;10.15;;
73264;SDS011;61493;51.008;14.088;2023-05-23T06:41:33;13.35;;;10.18;;
73264;SDS011;61493;51.008;14.088;2023-05-23T06:43:59;13.27;;;10.88;;
73264;SDS011;61493;51.008;14.088;2023-05-23T06:46:24;12.13;;;10.07;;
73264;SDS011;61493;51.008;14.088;2023-05-23T06:48:49;17.27;;;12.18;;
73264;SDS011;61493;51.008;14.088;2023-05-23T06:51:14;14.13;;;11.07;;
73264;SDS011;61493;51.008;14.088;2023-05-23T06:53:40;16.55;;;12.52;;
73264;SDS011;61493;51.008;14.088;2023-05-23T06:56:05;14.87;;;11.40;;
73264;SDS011;61493;51.008;14.088;2023-05-23T06:58:30;15.80;;;11.27;;
73264;SDS011;61493;51.008;14.088;2023-05-23T07:00:55;17.05;;;12.80;;
73264;SDS011;61493;51.008;14.088;2023-05-23T07:03:20;20.43;;;14.77;;
73264;SDS011;61493;51.008;14.088;2023-05-23T07:05:46;21.33;;;15.57;;
73264;SDS011;61493;51.008;14.088;2023-05-23T07:08:11;18.37;;;13.37;;
73264;SDS011;61493;51.008;14.088;2023-05-23T07:10:37;19.55;;;14.27;;
73264;SDS011;61493;51.008;14.088;2023-05-23T07:13:05;20.35;;;15.02;;
73264;SDS011;61493;51.008;14.088;2023-05-23T07:15:30;20.20;;;14.40;;
73264;SDS011;61493;51.008;14.088;2023-05-23T07:17:55;19.60;;;14.40;;
73264;SDS011;61493;51.008;14.088;2023-05-23T07:20:20;19.60;;;14.93;;
73264;SDS011;61493;51.008;14.088;2023-05-23T07:22:45;19.90;;;14.63;;
73264;SDS011;61493;51.008;14.088;2023-05-23T07:25:10;19.67;;;14.53;;
73264;SDS011;61493;51.008;14.088;2023-05-23T07:27:36;18.80;;;14.02;;
73264;SDS011;61493;51.008;14.088;2023-05-23T07:30:01;18.67;;;13.38;;
73264;SDS011;61493;51.008;14.088;2023-05-23T07:32:29;17.67;;;14.30;;
73264;SDS011;61493;51.008;14.088;2023-05-23T07:34:54;18.92;;;14.52;;
73264;SDS011;61493;51.008;14.088;2023-05-23T07:37:19;17.97;;;13.17;;
73264;SDS011;61493;51.008;14.088;2023-05-23T07:39:44;14.13;;;11.83;;
73264;SDS011;61493;51.008;14.088;2023-05-23T07:42:09;15.73;;;12.57;;
73264;SDS011;61493;51.008;14.088;2023-05-23T07:44:35;15.13;;;12.90;;
73264;SDS011;61493;51.008;14.088;2023-05-23T07:47:00;14.70;;;12.80;;
73264;SDS011;61493;51.008;14.088;2023-05-23T07:49:25;14.77;;;12.40;;
73264;SDS011;61493;51.008;14.088;2023-05-23T07:51:50;14.32;;;12.45;;
73264;SDS011;61493;51.008;14.088;2023-05-23T07:54:16;20.17;;;13.77;;
73264;SDS011;61493;51.008;14.088;2023-05-23T07:56:41;14.43;;;11.83;;
73264;SDS011;61493;51.008;14.088;2023-05-23T07:59:07;21.45;;;13.57;;
73264;SDS011;61493;51.008;14.088;2023-05-23T08:01:32;15.18;;;12.27;;
73264;SDS011;61493;51.008;14.088;2023-05-23T08:03:57;12.40;;;11.10;;
73264;SDS011;61493;51.008;14.088;2023-05-23T08:06:22;13.63;;;10.37;;
73264;SDS011;61493;51.008;14.088;2023-05-23T08:08:48;13.80;;;11.32;;
73264;SDS011;61493;51.008;14.088;2023-05-23T08:11:13;11.98;;;10.60;;
73264;SDS011;61493;51.008;14.088;2023-05-23T08:13:39;13.88;;;10.93;;
73264;SDS011;61493;51.008;14.088;2023-05-23T08:16:04;13.68;;;10.10;;
73264;SDS011;61493;51.008;14.088;2023-05-23T08:18:29;11.05;;;9.63;;
73264;SDS011;61493;51.008;14.088;2023-05-23T08:20:55;11.32;;;9.77;;
73264;SDS011;61493;51.008;14.088;2023-05-23T08:23:20;11.98;;;10.35;;
73264;SDS011;61493;51.008;14.088;2023-05-23T08:25:45;13.97;;;9.47;;
73264;SDS011;61493;51.008;14.088;2023-05-23T08:28:10;12.00;;;10.27;;
73264;SDS011;61493;51.008;14.088;2023-05-23T08:30:35;10.18;;;8.60;;
73264;SDS011;61493;51.008;14.088;2023-05-23T08:33:01;12.97;;;10.40;;
73264;SDS011;61493;51.008;14.088;2023-05-23T08:35:28;12.45;;;9.45;;
73264;SDS011;61493;51.008;14.088;2023-05-23T08:37:57;11.35;;;8.05;;
73264;SDS011;61493;51.008;14.088;2023-05-23T08:40:23;10.75;;;9.07;;
73264;SDS011;61493;51.008;14.088;2023-05-23T08:42:49;11.95;;;8.68;;
73264;SDS011;61493;51.008;14.088;2023-05-23T08:45:15;10.73;;;7.80;;
73264;SDS011;61493;51.008;14.088;2023-05-23T08:47:44;11.77;;;8.15;;
73264;SDS011;61493;51.008;14.088;2023-05-23T08:50:11;8.77;;;7.15;;
73264;SDS011;61493;51.008;14.088;2023-05-23T08:52:36;9.45;;;7.20;;
73264;SDS011;61493;51.008;14.088;2023-05-23T08:55:05;8.63;;;7.68;;
73264;SDS011;61493;51.008;14.088;2023-05-23T08:57:30;10.13;;;7.47;;
73264;SDS011;61493;51.008;14.088;2023-05-23T08:59:56;9.00;;;8.10;;
73264;SDS011;61493;51.008;14.088;2023-05-23T09:02:21;10.93;;;8.18;;
73264;SDS011;61493;51.008;14.088;2023-05-23T09:04:47;10.18;;;9.00;;
73264;SDS011;61493;51.008;14.088;2023-05-23T09:07:13;10.80;;;9.20;;
73264;SDS011;61493;51.008;14.088;2023-05-23T09:09:40;12.10;;;8.75;;
73264;SDS011;61493;51.008;14.088;2023-05-23T09:12:05;13.57;;;9.57;;
73264;SDS011;61493;51.008;14.088;2023-05-23T09:14:31;10.40;;;8.37;;
73264;SDS011;61493;51.008;14.088;2023-05-23T09:16:59;10.80;;;8.40;;
73264;SDS011;61493;51.008;14.088;2023-05-23T09:19:24;11.65;;;8.38;;
73264;SDS011;61493;51.008;14.088;2023-05-23T09:21:49;12.33;;;9.33;;
73264;SDS011;61493;51.008;14.088;2023-05-23T09:24:17;12.25;;;9.73;;
73264;SDS011;61493;51.008;14.088;2023-05-23T09:26:45;11.23;;;9.30;;
73264;SDS011;61493;51.008;14.088;2023-05-23T09:29:10;11.38;;;8.65;;
73264;SDS011;61493;51.008;14.088;2023-05-23T09:31:35;10.75;;;9.00;;
73264;SDS011;61493;51.008;14.088;2023-05-23T09:34:00;11.50;;;9.80;;
73264;SDS011;61493;51.008;14.088;2023-05-23T09:36:26;12.48;;;8.77;;
73264;SDS011;61493;51.008;14.088;2023-05-23T09:38:53;9.70;;;8.15;;
73264;SDS011;61493;51.008;14.088;2023-05-23T09:41:19;11.85;;;8.73;;
73264;SDS011;61493;51.008;14.088;2023-05-23T09:46:16;20.88;;;9.68;;
73264;SDS011;61493;51.008;14.088;2023-05-23T09:48:50;12.65;;;9.63;;
73264;SDS011;61493;51.008;14.088;2023-05-23T09:51:20;9.30;;;7.95;;
73264;SDS011;61493;51.008;14.088;2023-05-23T09:53:46;12.50;;;8.65;;
73264;SDS011;61493;51.008;14.088;2023-05-23T09:56:11;11.05;;;8.50;;
73264;SDS011;61493;51.008;14.088;2023-05-23T09:58:37;11.65;;;8.30;;
73264;SDS011;61493;51.008;14.088;2023-05-23T10:01:03;11.88;;;8.63;;
73264;SDS011;61493;51.008;14.088;2023-05-23T10:03:44;11.18;;;8.73;;
73264;SDS011;61493;51.008;14.088;2023-05-23T10:06:12;15.57;;;10.85;;
73264;SDS011;61493;51.008;14.088;2023-05-23T10:08:42;14.38;;;11.02;;
73264;SDS011;61493;51.008;14.088;2023-05-23T10:13:40;15.63;;;11.75;;
73264;SDS011;61493;51.008;14.088;2023-05-23T10:16:08;19.45;;;12.63;;
73264;SDS011;61493;51.008;14.088;2023-05-23T10:18:42;19.02;;;12.30;;
73264;SDS011;61493;51.008;14.088;2023-05-23T10:21:10;21.15;;;14.10;;
73264;SDS011;61493;51.008;14.088;2023-05-23T10:23:36;22.00;;;15.20;;
73264;SDS011;61493;51.008;14.088;2023-05-23T10:26:02;21.13;;;14.18;;
73264;SDS011;61493;51.008;14.088;2023-05-23T10:28:28;26.73;;;16.10;;
73264;SDS011;61493;51.008;14.088;2023-05-23T10:30:54;25.08;;;16.90;;
73264;SDS011;61493;51.008;14.088;2023-05-23T10:33:19;26.42;;;17.23;;
73264;SDS011;61493;51.008;14.088;2023-05-23T10:35:52;28.17;;;17.20;;
73264;SDS011;61493;51.008;14.088;2023-05-23T10:40:50;28.00;;;18.85;;
73264;SDS011;61493;51.008;14.088;2023-05-23T10:45:45;24.98;;;16.20;;
73264;SDS011;61493;51.008;14.088;2023-05-23T10:48:46;29.80;;;18.15;;
73264;SDS011;61493;51.008;14.088;2023-05-23T10:51:06;26.13;;;17.15;;
73264;SDS011;61493;51.008;14.088;2023-05-23T10:53:38;21.02;;;13.82;;
73264;SDS011;61493;51.008;14.088;2023-05-23T10:56:07;26.58;;;15.80;;
73264;SDS011;61493;51.008;14.088;2023-05-23T10:58:36;23.70;;;14.27;;
73264;SDS011;61493;51.008;14.088;2023-05-23T11:01:06;25.98;;;14.10;;
73264;SDS011;61493;51.008;14.088;2023-05-23T11:06:01;19.27;;;13.30;;
73264;SDS011;61493;51.008;14.088;2023-05-23T11:08:27;18.40;;;12.48;;
73264;SDS011;61493;51.008;14.088;2023-05-23T11:11:00;18.20;;;11.73;;
73264;SDS011;61493;51.008;14.088;2023-05-23T11:13:52;17.88;;;12.25;;
73264;SDS011;61493;51.008;14.088;2023-05-23T11:16:24;14.02;;;10.63;;
73264;SDS011;61493;51.008;14.088;2023-05-23T11:18:49;15.38;;;10.18;;
73264;SDS011;61493;51.008;14.088;2023-05-23T11:21:15;21.53;;;12.90;;
73264;SDS011;61493;51.008;14.088;2023-05-23T11:23:40;14.82;;;9.10;;
73264;SDS011;61493;51.008;14.088;2023-05-23T11:28:56;11.48;;;8.02;;
73264;SDS011;61493;51.008;14.088;2023-05-23T11:31:21;16.15;;;9.60;;
73264;SDS011;61493;51.008;14.088;2023-05-23T11:33:49;12.48;;;8.90;;
73264;SDS011;61493;51.008;14.088;2023-05-23T11:36:14;11.40;;;8.30;;
73264;SDS011;61493;51.008;14.088;2023-05-23T11:38:39;14.05;;;8.93;;
73264;SDS011;61493;51.008;14.088;2023-05-23T11:41:05;14.05;;;8.93;;
73264;SDS011;61493;51.008;14.088;2023-05-23T11:43:30;11.23;;;7.27;;
73264;SDS011;61493;51.008;14.088;2023-05-23T11:45:55;14.17;;;7.77;;
73264;SDS011;61493;51.008;14.088;2023-05-23T11:48:20;10.93;;;6.87;;
73264;SDS011;61493;51.008;14.088;2023-05-23T11:50:49;11.20;;;6.50;;
73264;SDS011;61493;51.008;14.088;2023-05-23T11:53:15;11.50;;;7.22;;
73264;SDS011;61493;51.008;14.088;2023-05-23T11:55:53;12.30;;;7.35;;
73264;SDS011;61493;51.008;14.088;2023-05-23T11:58:25;11.35;;;6.80;;
73264;SDS011;61493;51.008;14.088;2023-05-23T12:00:50;10.98;;;7.65;;
73264;SDS011;61493;51.008;14.088;2023-05-23T12:03:15;13.52;;;7.95;;
73264;SDS011;61493;51.008;14.088;2023-05-23T12:05:41;10.50;;;7.57;;
73264;SDS011;61493;51.008;14.088;2023-05-23T12:08:07;13.82;;;7.78;;
73264;SDS011;61493;51.008;14.088;2023-05-23T12:10:34;14.75;;;7.40;;
73264;SDS011;61493;51.008;14.088;2023-05-23T12:12:59;9.52;;;7.25;;
73264;SDS011;61493;51.008;14.088;2023-05-23T12:15:25;13.25;;;8.15;;
73264;SDS011;61493;51.008;14.088;2023-05-23T12:17:53;12.23;;;7.00;;
73264;SDS011;61493;51.008;14.088;2023-05-23T12:20:19;12.95;;;7.55;;
73264;SDS011;61493;51.008;14.088;2023-05-23T12:22:45;13.95;;;8.40;;
73264;SDS011;61493;51.008;14.088;2023-05-23T12:25:10;12.10;;;7.60;;
73264;SDS011;61493;51.008;14.088;2023-05-23T12:27:35;10.82;;;7.50;;
73264;SDS011;61493;51.008;14.088;2023-05-23T12:30:08;12.10;;;7.10;;
73264;SDS011;61493;51.008;14.088;2023-05-23T12:32:44;10.88;;;6.82;;
73264;SDS011;61493;51.008;14.088;2023-05-23T12:35:10;10.00;;;6.85;;
73264;SDS011;61493;51.008;14.088;2023-05-23T12:37:39;11.80;;;7.85;;
73264;SDS011;61493;51.008;14.088;2023-05-23T12:40:11;10.50;;;7.32;;
73264;SDS011;61493;51.008;14.088;2023-05-23T12:43:09;10.50;;;7.93;;
73264;SDS011;61493;51.008;14.088;2023-05-23T12:45:34;12.80;;;8.15;;
73264;SDS011;61493;51.008;14.088;2023-05-23T12:48:00;11.70;;;8.98;;
73264;SDS011;61493;51.008;14.088;2023-05-23T12:50:26;13.43;;;7.82;;
73264;SDS011;61493;51.008;14.088;2023-05-23T12:52:51;13.80;;;8.40;;
73264;SDS011;61493;51.008;14.088;2023-05-23T12:55:16;10.95;;;7.78;;
73264;SDS011;61493;51.008;14.088;2023-05-23T12:57:42;14.25;;;8.25;;
73264;SDS011;61493;51.008;14.088;2023-05-23T13:00:07;11.00;;;7.47;;
73264;SDS011;61493;51.008;14.088;2023-05-23T13:02:32;12.27;;;7.57;;
73264;SDS011;61493;51.008;14.088;2023-05-23T13:04:58;14.23;;;8.13;;
73264;SDS011;61493;51.008;14.088;2023-05-23T13:07:23;11.63;;;8.38;;
73264;SDS011;61493;51.008;14.088;2023-05-23T13:09:48;11.18;;;7.38;;
73264;SDS011;61493;51.008;14.088;2023-05-23T13:12:13;14.32;;;8.20;;
73264;SDS011;61493;51.008;14.088;2023-05-23T13:14:39;10.23;;;7.78;;
73264;SDS011;61493;51.008;14.088;2023-05-23T13:17:04;11.50;;;7.47;;
73264;SDS011;61493;51.008;14.088;2023-05-23T13:19:29;12.87;;;7.97;;
73264;SDS011;61493;51.008;14.088;2023-05-23T13:21:54;11.85;;;8.23;;
73264;SDS011;61493;51.008;14.088;2023-05-23T13:24:21;10.35;;;7.22;;
73264;SDS011;61493;51.008;14.088;2023-05-23T13:26:46;15.17;;;9.37;;
73264;SDS011;61493;51.008;14.088;2023-05-23T13:29:11;10.70;;;8.07;;
73264;SDS011;61493;51.008;14.088;2023-05-23T13:31:36;11.30;;;7.63;;
73264;SDS011;61493;51.008;14.088;2023-05-23T13:34:01;11.13;;;6.83;;
73264;SDS011;61493;51.008;14.088;2023-05-23T13:36:26;11.20;;;7.40;;
73264;SDS011;61493;51.008;14.088;2023-05-23T13:38:52;11.55;;;7.28;;
73264;SDS011;61493;51.008;14.088;2023-05-23T13:41:17;9.52;;;7.07;;
73264;SDS011;61493;51.008;14.088;2023-05-23T13:43:42;9.63;;;6.82;;
73264;SDS011;61493;51.008;14.088;2023-05-23T13:46:08;9.17;;;5.67;;
73264;SDS011;61493;51.008;14.088;2023-05-23T13:48:33;7.57;;;5.27;;
73264;SDS011;61493;51.008;14.088;2023-05-23T13:50:58;8.77;;;4.85;;
73264;SDS011;61493;51.008;14.088;2023-05-23T13:53:23;6.25;;;4.45;;
73264;SDS011;61493;51.008;14.088;2023-05-23T13:55:48;7.47;;;5.07;;
73264;SDS011;61493;51.008;14.088;2023-05-23T13:58:14;6.53;;;4.00;;
73264;SDS011;61493;51.008;14.088;2023-05-23T14:00:39;7.50;;;4.40;;
73264;SDS011;61493;51.008;14.088;2023-05-23T14:03:05;9.95;;;4.47;;
73264;SDS011;61493;51.008;14.088;2023-05-23T14:05:30;8.15;;;4.53;;
73264;SDS011;61493;51.008;14.088;2023-05-23T14:07:56;8.68;;;4.68;;
73264;SDS011;61493;51.008;14.088;2023-05-23T14:10:21;5.78;;;3.97;;
73264;SDS011;61493;51.008;14.088;2023-05-23T14:12:46;5.93;;;4.05;;
73264;SDS011;61493;51.008;14.088;2023-05-23T14:15:11;6.43;;;4.50;;
73264;SDS011;61493;51.008;14.088;2023-05-23T14:17:37;8.77;;;4.20;;
73264;SDS011;61493;51.008;14.088;2023-05-23T14:20:02;8.15;;;4.45;;
73264;SDS011;61493;51.008;14.088;2023-05-23T14:22:28;5.90;;;3.80;;
73264;SDS011;61493;51.008;14.088;2023-05-23T14:24:53;6.10;;;4.33;;
73264;SDS011;61493;51.008;14.088;2023-05-23T14:27:18;7.73;;;4.63;;
73264;SDS011;61493;51.008;14.088;2023-05-23T14:29:43;7.50;;;5.43;;
73264;SDS011;61493;51.008;14.088;2023-05-23T14:32:10;8.23;;;5.20;;
73264;SDS011;61493;51.008;14.088;2023-05-23T14:34:35;7.90;;;5.45;;
73264;SDS011;61493;51.008;14.088;2023-05-23T14:37:01;6.88;;;5.03;;
73264;SDS011;61493;51.008;14.088;2023-05-23T14:39:26;9.55;;;5.63;;
73264;SDS011;61493;51.008;14.088;2023-05-23T14:41:52;7.72;;;5.15;;
73264;SDS011;61493;51.008;14.088;2023-05-23T14:44:17;9.07;;;5.68;;
73264;SDS011;61493;51.008;14.088;2023-05-23T14:46:43;8.27;;;5.93;;
73264;SDS011;61493;51.008;14.088;2023-05-23T14:49:12;8.98;;;5.38;;
73264;SDS011;61493;51.008;14.088;2023-05-23T14:51:37;7.80;;;5.45;;
73264;SDS011;61493;51.008;14.088;2023-05-23T14:54:02;11.10;;;5.90;;
73264;SDS011;61493;51.008;14.088;2023-05-23T14:56:28;8.45;;;5.75;;
73264;SDS011;61493;51.008;14.088;2023-05-23T14:58:53;16.15;;;13.38;;
73264;SDS011;61493;51.008;14.088;2023-05-23T15:01:19;9.50;;;6.00;;
73264;SDS011;61493;51.008;14.088;2023-05-23T15:03:45;7.53;;;5.63;;
73264;SDS011;61493;51.008;14.088;2023-05-23T15:06:10;8.00;;;5.95;;
73264;SDS011;61493;51.008;14.088;2023-05-23T15:08:36;6.65;;;4.70;;
73264;SDS011;61493;51.008;14.088;2023-05-23T15:11:01;6.10;;;5.07;;
73264;SDS011;61493;51.008;14.088;2023-05-23T15:13:26;7.53;;;5.00;;
73264;SDS011;61493;51.008;14.088;2023-05-23T15:15:51;6.47;;;4.57;;
73264;SDS011;61493;51.008;14.088;2023-05-23T15:18:18;7.47;;;4.55;;
73264;SDS011;61493;51.008;14.088;2023-05-23T15:20:43;7.32;;;4.03;;
73264;SDS011;61493;51.008;14.088;2023-05-23T15:23:08;4.65;;;2.97;;
73264;SDS011;61493;51.008;14.088;2023-05-23T15:25:34;6.38;;;4.03;;
73264;SDS011;61493;51.008;14.088;2023-05-23T15:27:59;4.95;;;3.42;;
73264;SDS011;61493;51.008;14.088;2023-05-23T15:30:24;6.90;;;3.88;;
73264;SDS011;61493;51.008;14.088;2023-05-23T15:32:49;9.25;;;4.22;;
73264;SDS011;61493;51.008;14.088;2023-05-23T15:35:14;7.47;;;4.50;;
73264;SDS011;61493;51.008;14.088;2023-05-23T15:37:40;8.20;;;4.55;;
73264;SDS011;61493;51.008;14.088;2023-05-23T15:40:06;8.25;;;5.68;;
73264;SDS011;61493;51.008;14.088;2023-05-23T15:42:32;8.23;;;5.05;;
73264;SDS011;61493;51.008;14.088;2023-05-23T15:44:57;9.23;;;4.95;;
73264;SDS011;61493;51.008;14.088;2023-05-23T15:47:22;8.57;;;5.20;;
73264;SDS011;61493;51.008;14.088;2023-05-23T15:49:47;9.60;;;5.53;;
73264;SDS011;61493;51.008;14.088;2023-05-23T15:52:13;6.63;;;4.63;;
73264;SDS011;61493;51.008;14.088;2023-05-23T15:54:38;8.05;;;5.38;;
73264;SDS011;61493;51.008;14.088;2023-05-23T15:57:03;9.30;;;5.70;;
73264;SDS011;61493;51.008;14.088;2023-05-23T15:59:28;9.32;;;5.53;;
73264;SDS011;61493;51.008;14.088;2023-05-23T16:01:55;8.95;;;5.00;;
73264;SDS011;61493;51.008;14.088;2023-05-23T16:04:20;7.25;;;5.47;;
73264;SDS011;61493;51.008;14.088;2023-05-23T16:06:47;9.45;;;5.25;;
73264;SDS011;61493;51.008;14.088;2023-05-23T16:09:12;7.80;;;5.32;;
73264;SDS011;61493;51.008;14.088;2023-05-23T16:11:37;9.32;;;4.60;;
73264;SDS011;61493;51.008;14.088;2023-05-23T16:14:02;7.43;;;4.50;;
73264;SDS011;61493;51.008;14.088;2023-05-23T16:16:27;9.60;;;4.90;;
73264;SDS011;61493;51.008;14.088;2023-05-23T16:18:53;7.38;;;4.70;;
73264;SDS011;61493;51.008;14.088;2023-05-23T16:21:20;7.40;;;4.78;;